Time;durP1;ratioP1;P1;durP2;ratioP2;P2;SDS_P1;SDS_P2;PMS_P1;PMS_P2;Temp;Humidity;BMP_temperature;BMP_pressure;BME280_temperature;BME280_humidity;BME280_pressure;Samples;Min_cycle;Max_cycle;Signal;HPM_P1;HPM_P2
2024/02/05 00:32:32;;;;;;;4.20;4.10;;;10.40;29.40;;;;;;5986993;23;21093;-82
2024/02/05 00:35:08;;;;;;;3.90;3.80;;;10.20;30.00;;;;;;6055574;23;20380;-80
2024/02/05 00:37:46;;;;;;;3.93;3.83;;;10.20;30.00;;;;;;6157273;23;20411;-82
2024/02/05 00:43:08;;;;;;;4.20;4.10;;;10.30;29.60;;;;;;6195450;23;20383;-82
2024/02/05 00:50:05;;;;;;;3.83;3.73;;;10.60;28.70;;;;;;6288020;22;20334;-81
2024/02/05 00:56:40;;;;;;;3.70;3.60;;;10.80;28.20;;;;;;6194338;23;20364;-82
2024/02/05 00:59:56;;;;;;;4.00;3.90;;;11.00;27.60;;;;;;6170495;23;20412;-83
2024/02/05 01:02:23;;;;;;;3.90;3.80;;;11.10;27.20;;;;;;6177742;23;20487;-80
2024/02/05 01:04:49;;;;;;;3.80;3.70;;;11.20;26.60;;;;;;6198216;23;20390;-82
2024/02/05 01:07:14;;;;;;;3.97;3.87;;;11.30;26.10;;;;;;6231454;22;20412;-80
2024/02/05 01:09:43;;;;;;;4.00;3.90;;;11.20;26.00;;;;;;6293609;22;20381;-81
2024/02/05 01:12:09;;;;;;;4.17;4.07;;;11.10;26.50;;;;;;6292783;22;20567;-82
2024/02/05 01:14:34;;;;;;;4.40;4.30;;;11.00;26.60;;;;;;6295468;22;20377;-82
2024/02/05 01:17:01;;;;;;;4.50;4.40;;;10.70;27.30;;;;;;6269338;22;20162;-82
2024/02/05 01:19:26;;;;;;;4.17;4.07;;;10.70;27.70;;;;;;6292929;22;20161;-81
2024/02/05 01:21:52;;;;;;;4.57;4.47;;;10.60;27.70;;;;;;6289795;22;20461;-82
2024/02/05 01:24:18;;;;;;;4.90;4.60;;;10.60;27.80;;;;;;6261722;22;20161;-82
2024/02/05 01:26:43;;;;;;;4.63;4.53;;;10.70;27.30;;;;;;6259944;22;20190;-82
2024/02/05 01:29:09;;;;;;;4.73;4.63;;;10.50;28.00;;;;;;6261746;22;20158;-82
2024/02/05 01:31:35;;;;;;;4.53;4.43;;;10.60;27.90;;;;;;6261514;22;20174;-81
2024/02/05 01:34:02;;;;;;;4.23;4.13;;;10.40;28.10;;;;;;6289268;22;20147;-82
2024/02/05 01:36:28;;;;;;;4.40;4.20;;;10.20;28.40;;;;;;6260575;22;20389;-81
2024/02/05 01:38:53;;;;;;;4.40;4.30;;;10.20;29.00;;;;;;6289667;22;20460;-82
2024/02/05 01:41:19;;;;;;;4.83;4.73;;;10.20;29.00;;;;;;6261647;22;20181;-82
2024/02/05 01:43:44;;;;;;;4.80;4.70;;;10.10;29.30;;;;;;6262138;22;20154;-82
2024/02/05 01:46:16;;;;;;;4.27;4.17;;;10.10;29.10;;;;;;6287731;22;20202;-81
2024/02/05 01:48:43;;;;;;;4.00;3.90;;;9.90;30.10;;;;;;6261823;22;20218;-82
2024/02/05 01:51:11;;;;;;;4.50;4.40;;;10.00;29.90;;;;;;6288613;22;20488;-82
2024/02/05 01:53:38;;;;;;;5.20;5.00;;;10.00;29.90;;;;;;6290762;22;20428;-83
2024/02/05 01:56:33;;;;;;;4.90;4.80;;;9.80;31.40;;;;;;6264087;22;20443;-83
2024/02/05 01:59:03;;;;;;;4.63;4.53;;;9.90;31.50;;;;;;6264403;22;20407;-81
2024/02/05 02:01:30;;;;;;;4.93;4.83;;;9.90;30.90;;;;;;6263375;22;20942;-82
2024/02/05 02:03:56;;;;;;;4.90;4.80;;;9.90;30.70;;;;;;6264524;22;20408;-81
2024/02/05 02:06:24;;;;;;;5.57;5.37;;;9.90;31.20;;;;;;6261401;22;20394;-81
2024/02/05 02:08:50;;;;;;;5.37;5.17;;;9.70;31.90;;;;;;6287511;22;20404;-81
2024/02/05 02:11:15;;;;;;;5.93;5.73;;;9.60;32.10;;;;;;6261182;22;20405;-83
2024/02/05 02:13:42;;;;;;;5.40;5.20;;;9.70;32.20;;;;;;6262235;22;20424;-82
2024/02/05 02:16:16;;;;;;;5.87;5.67;;;9.60;32.80;;;;;;6263026;22;20151;-82
2024/02/05 02:18:42;;;;;;;5.37;5.17;;;9.60;32.10;;;;;;6263835;22;20381;-83
2024/02/05 02:21:12;;;;;;;5.30;5.10;;;9.50;32.00;;;;;;6289956;22;20484;-83
2024/02/05 02:23:38;;;;;;;5.50;5.30;;;9.50;32.50;;;;;;6262890;22;20519;-83
2024/02/05 02:26:04;;;;;;;5.53;5.33;;;9.50;32.30;;;;;;6262139;22;20870;-81
2024/02/05 02:28:30;;;;;;;6.10;5.73;;;9.50;32.10;;;;;;6290611;22;20408;-81
2024/02/05 02:30:56;;;;;;;5.77;5.53;;;9.50;32.00;;;;;;6261575;22;20403;-80
2024/02/05 02:33:25;;;;;;;5.70;5.50;;;9.50;32.50;;;;;;6312933;22;20234;-80
2024/02/05 02:36:03;;;;;;;5.50;5.30;;;9.40;32.40;;;;;;6284418;22;20389;-80
2024/02/05 02:38:46;;;;;;;5.70;5.50;;;9.30;32.40;;;;;;6313215;22;20391;-80
2024/02/05 02:41:21;;;;;;;5.83;5.63;;;9.20;32.50;;;;;;6307853;22;20397;-80
2024/02/05 02:43:58;;;;;;;5.37;5.17;;;9.20;33.10;;;;;;6253264;22;20459;-79
2024/02/05 02:46:25;;;;;;;5.60;5.40;;;9.30;32.30;;;;;;6278005;22;20408;-80
2024/02/05 02:48:51;;;;;;;5.50;5.27;;;9.20;32.00;;;;;;6280748;22;20373;-79
2024/02/05 02:51:16;;;;;;;5.67;5.40;;;9.20;31.90;;;;;;6279841;22;20412;-79
2024/02/05 02:53:42;;;;;;;5.70;5.50;;;9.20;31.80;;;;;;6253371;22;20178;-79
2024/02/05 02:56:08;;;;;;;5.70;5.50;;;9.40;31.90;;;;;;6253893;22;20170;-80
2024/02/05 02:58:34;;;;;;;5.20;5.00;;;9.20;31.80;;;;;;6253394;22;20155;-80
2024/02/05 03:01:00;;;;;;;5.40;5.20;;;9.20;31.80;;;;;;6252607;22;20432;-80
2024/02/05 03:03:25;;;;;;;5.30;5.10;;;9.30;31.90;;;;;;6251496;22;20557;-79
2024/02/05 03:05:51;;;;;;;5.20;5.00;;;9.40;31.40;;;;;;6283501;22;20154;-79
2024/02/05 03:08:17;;;;;;;5.20;5.10;;;9.40;31.10;;;;;;6283580;22;20189;-80
2024/02/05 03:10:42;;;;;;;5.40;5.20;;;9.40;30.90;;;;;;6280990;22;20147;-80
2024/02/05 03:13:08;;;;;;;5.60;5.40;;;9.30;31.50;;;;;;6280684;22;20754;-80
2024/02/05 03:15:33;;;;;;;5.80;5.50;;;9.30;31.80;;;;;;6254215;22;20158;-80
2024/02/05 03:18:00;;;;;;;5.83;5.63;;;9.30;31.30;;;;;;6253119;22;20558;-79
2024/02/05 03:20:35;;;;;;;6.17;5.87;;;9.30;31.90;;;;;;6253845;22;20181;-80
2024/02/05 03:23:03;;;;;;;5.50;5.40;;;9.30;31.90;;;;;;6279901;22;20472;-80
2024/02/05 03:25:29;;;;;;;5.83;5.63;;;9.30;31.90;;;;;;6280490;22;20464;-80
2024/02/05 03:27:57;;;;;;;5.60;5.50;;;9.30;31.90;;;;;;6280271;22;20381;-80
2024/02/05 03:30:23;;;;;;;5.80;5.60;;;9.30;31.90;;;;;;6254205;22;20393;-79
2024/02/05 03:32:49;;;;;;;5.47;5.20;;;9.40;30.70;;;;;;6253597;22;20432;-79
2024/02/05 03:35:16;;;;;;;5.23;5.03;;;9.40;30.70;;;;;;6253505;22;20388;-80
2024/02/05 03:37:42;;;;;;;5.17;5.07;;;9.50;30.90;;;;;;6253046;22;20390;-79
2024/02/05 03:40:08;;;;;;;5.90;5.70;;;9.60;29.90;;;;;;6253772;22;20388;-79
2024/02/05 03:42:34;;;;;;;5.37;5.17;;;9.60;30.00;;;;;;6256581;22;20444;-80
2024/02/05 03:44:59;;;;;;;5.30;5.20;;;9.60;30.50;;;;;;6283994;22;20427;-79
2024/02/05 03:47:25;;;;;;;5.80;5.60;;;9.60;30.00;;;;;;6254816;22;20190;-78
2024/02/05 03:49:51;;;;;;;5.90;5.70;;;9.70;29.70;;;;;;6256267;22;20163;-80
2024/02/05 03:52:16;;;;;;;5.50;5.40;;;9.70;29.70;;;;;;6255013;22;20193;-80
2024/02/05 03:54:43;;;;;;;5.73;5.63;;;9.80;29.10;;;;;;6281037;22;20161;-80
2024/02/05 03:57:09;;;;;;;5.63;5.43;;;9.90;29.30;;;;;;6279938;22;20146;-80
2024/02/05 03:59:35;;;;;;;5.67;5.47;;;9.80;29.40;;;;;;6278828;22;20388;-81
2024/02/05 04:02:02;;;;;;;5.37;5.17;;;9.80;29.50;;;;;;6279983;22;20174;-80
2024/02/05 04:04:27;;;;;;;5.60;5.30;;;9.70;30.00;;;;;;6253138;22;20154;-80
2024/02/05 04:06:53;;;;;;;5.50;5.27;;;9.60;30.00;;;;;;6252606;22;20712;-80
2024/02/05 04:09:18;;;;;;;5.57;5.47;;;9.70;29.60;;;;;;6281132;22;20580;-79
2024/02/05 04:11:44;;;;;;;5.40;5.30;;;9.90;29.70;;;;;;6253074;22;20170;-80
2024/02/05 04:14:10;;;;;;;5.40;5.30;;;10.10;28.40;;;;;;6253616;22;20208;-80
2024/02/05 04:16:36;;;;;;;5.90;5.70;;;10.00;28.20;;;;;;6252214;22;20236;-80
2024/02/05 04:19:02;;;;;;;5.30;5.20;;;9.90;29.30;;;;;;6280285;22;20146;-80
2024/02/05 04:21:28;;;;;;;5.73;5.53;;;9.90;29.50;;;;;;6253822;22;20413;-80
2024/02/05 04:23:53;;;;;;;5.63;5.53;;;10.00;28.50;;;;;;6258330;22;20453;-80
2024/02/05 04:26:19;;;;;;;5.53;5.30;;;10.10;28.20;;;;;;6282202;22;20147;-80
2024/02/05 04:28:46;;;;;;;5.87;5.67;;;10.20;28.00;;;;;;6280733;22;20178;-79
2024/02/05 04:31:12;;;;;;;5.57;5.37;;;10.50;27.50;;;;;;6280039;22;20225;-80
2024/02/05 04:33:38;;;;;;;5.47;5.27;;;10.60;26.60;;;;;;6253345;22;20780;-80
2024/02/05 04:36:10;;;;;;;6.10;5.80;;;10.70;26.50;;;;;;6251140;22;20400;-80
2024/02/05 04:38:35;;;;;;;5.23;5.13;;;10.50;26.90;;;;;;6279313;22;20358;-80
2024/02/05 04:41:01;;;;;;;5.83;5.63;;;10.50;27.00;;;;;;6251910;22;20755;-79
2024/02/05 04:43:26;;;;;;;5.37;5.27;;;10.50;27.10;;;;;;6284710;22;20168;-80
2024/02/05 04:45:52;;;;;;;5.53;5.43;;;10.40;27.10;;;;;;6257406;22;20214;-79
2024/02/05 04:48:20;;;;;;;5.93;5.83;;;10.40;27.10;;;;;;6258409;22;20612;-80
2024/02/05 04:50:46;;;;;;;5.70;5.50;;;10.30;27.10;;;;;;6281818;22;20147;-81
2024/02/05 04:53:11;;;;;;;6.13;5.93;;;10.30;27.70;;;;;;6253662;22;20929;-80
2024/02/05 04:55:41;;;;;;;6.17;6.07;;;10.40;27.50;;;;;;6281160;22;20439;-80
2024/02/05 04:58:10;;;;;;;5.60;5.50;;;10.60;27.00;;;;;;6252589;22;20174;-79
2024/02/05 05:00:36;;;;;;;6.10;5.80;;;10.60;26.70;;;;;;6280356;22;20370;-80
2024/02/05 05:03:01;;;;;;;5.97;5.67;;;10.60;26.30;;;;;;6253797;22;20419;-80
2024/02/05 05:05:27;;;;;;;5.73;5.60;;;10.70;26.10;;;;;;6282393;22;20382;-80
2024/02/05 05:07:52;;;;;;;6.07;5.83;;;10.70;26.30;;;;;;6253265;22;20151;-81
2024/02/05 05:10:18;;;;;;;6.07;5.87;;;10.80;26.10;;;;;;6279844;22;20191;-81
2024/02/05 05:12:43;;;;;;;6.53;6.33;;;10.60;26.30;;;;;;6278738;22;20186;-80
2024/02/05 05:15:13;;;;;;;6.13;5.93;;;10.70;26.50;;;;;;6252075;22;20150;-80
2024/02/05 05:17:39;;;;;;;6.07;5.83;;;10.80;26.20;;;;;;6279196;22;20150;-79
2024/02/05 05:20:05;;;;;;;5.73;5.53;;;10.80;26.30;;;;;;6279952;22;20409;-79
2024/02/05 05:22:30;;;;;;;6.43;6.23;;;10.80;26.20;;;;;;6252133;22;20200;-80
2024/02/05 05:24:56;;;;;;;5.63;5.43;;;10.80;26.00;;;;;;6279710;22;20866;-80
2024/02/05 05:27:22;;;;;;;6.03;5.80;;;10.70;26.20;;;;;;6251926;22;20161;-79
2024/02/05 05:29:47;;;;;;;7.20;6.90;;;10.70;26.30;;;;;;6253149;22;20163;-81
2024/02/05 05:32:13;;;;;;;5.90;5.70;;;10.40;26.70;;;;;;6252728;22;20513;-80
2024/02/05 05:34:38;;;;;;;6.60;6.40;;;10.30;27.00;;;;;;6280121;22;20153;-80
2024/02/05 05:37:04;;;;;;;7.00;6.80;;;10.30;27.50;;;;;;6252427;22;20220;-78
2024/02/05 05:39:29;;;;;;;6.43;6.23;;;10.30;27.10;;;;;;6282910;22;20198;-80
2024/02/05 05:41:55;;;;;;;5.90;5.60;;;10.20;27.50;;;;;;6280095;22;20553;-80
2024/02/05 05:44:20;;;;;;;5.70;5.50;;;10.00;27.80;;;;;;6253342;22;20166;-80
2024/02/05 05:46:46;;;;;;;5.93;5.73;;;9.90;28.70;;;;;;6279972;22;20154;-79
2024/02/05 05:49:11;;;;;;;5.43;5.30;;;9.80;29.70;;;;;;6254340;22;20667;-80
2024/02/05 05:51:37;;;;;;;5.53;5.43;;;9.70;29.50;;;;;;6282153;22;20205;-80
2024/02/05 05:54:02;;;;;;;4.60;4.50;;;9.70;29.40;;;;;;6255373;22;20178;-79
2024/02/05 05:56:28;;;;;;;4.90;4.70;;;9.60;29.70;;;;;;6281188;22;20150;-78
2024/02/05 05:58:54;;;;;;;5.33;5.13;;;9.60;29.80;;;;;;6255313;22;20151;-80
2024/02/05 06:01:19;;;;;;;5.70;5.60;;;9.60;29.50;;;;;;6281723;22;20167;-80
2024/02/05 06:03:45;;;;;;;6.17;5.97;;;9.70;29.60;;;;;;6253029;22;20200;-80
2024/02/05 06:06:11;;;;;;;6.10;5.90;;;9.70;29.50;;;;;;6280054;22;20166;-80
2024/02/05 06:08:36;;;;;;;6.20;5.90;;;9.60;29.40;;;;;;6282509;22;20154;-79
2024/02/05 06:11:02;;;;;;;6.40;6.20;;;9.70;29.00;;;;;;6284645;22;20731;-79
2024/02/05 06:13:28;;;;;;;5.60;5.40;;;9.60;29.40;;;;;;6254922;22;20268;-79
2024/02/05 06:15:53;;;;;;;6.10;5.90;;;9.80;29.30;;;;;;6252237;22;20532;-80
2024/02/05 06:18:19;;;;;;;5.80;5.60;;;9.70;28.90;;;;;;6280781;22;20147;-79
2024/02/05 06:20:44;;;;;;;6.87;6.63;;;9.70;28.90;;;;;;6254012;22;20498;-79
2024/02/05 06:23:10;;;;;;;5.43;5.30;;;9.80;28.50;;;;;;6281338;22;20159;-79
2024/02/05 06:25:35;;;;;;;7.20;6.90;;;9.70;28.90;;;;;;6253353;22;20185;-80
2024/02/05 06:28:01;;;;;;;6.40;6.20;;;9.70;28.80;;;;;;6253784;22;20162;-80
2024/02/05 06:30:27;;;;;;;6.40;6.20;;;9.70;28.60;;;;;;6281978;22;20502;-80
2024/02/05 06:32:53;;;;;;;6.60;6.30;;;9.70;28.90;;;;;;6281278;22;20669;-80
2024/02/05 06:35:18;;;;;;;6.20;6.00;;;9.70;28.90;;;;;;6252942;22;20382;-81
2024/02/05 06:37:44;;;;;;;7.10;6.70;;;9.70;28.70;;;;;;6254274;22;20377;-79
2024/02/05 06:40:10;;;;;;;7.10;6.90;;;9.60;28.80;;;;;;6282557;22;20150;-80
2024/02/05 06:42:35;;;;;;;7.43;7.13;;;9.70;28.80;;;;;;6280908;22;20171;-79
2024/02/05 06:45:03;;;;;;;7.50;7.20;;;9.70;28.90;;;;;;6253854;22;20201;-80
2024/02/05 06:47:28;;;;;;;7.60;7.30;;;9.60;28.70;;;;;;6252429;22;20162;-78
2024/02/05 06:49:54;;;;;;;6.90;6.70;;;9.60;28.90;;;;;;6279447;22;20383;-79
2024/02/05 06:52:19;;;;;;;6.87;6.67;;;9.60;28.80;;;;;;6279667;22;20421;-78
2024/02/05 06:54:45;;;;;;;6.30;6.00;;;9.50;28.80;;;;;;6280480;22;20495;-79
2024/02/05 06:57:10;;;;;;;6.10;5.80;;;9.50;29.10;;;;;;6281255;22;20228;-79
2024/02/05 06:59:36;;;;;;;8.23;7.93;;;9.50;29.20;;;;;;6281583;22;20154;-78
2024/02/05 07:02:03;;;;;;;7.00;6.70;;;9.40;29.30;;;;;;6280662;22;20543;-79
2024/02/05 07:04:28;;;;;;;6.93;6.40;;;9.40;29.40;;;;;;6263912;22;20154;-80
2024/02/05 07:06:54;;;;;;;7.13;6.93;;;9.40;29.30;;;;;;6268929;22;20385;-79
2024/02/05 07:09:21;;;;;;;6.80;6.60;;;9.30;29.30;;;;;;6294088;22;20226;-79
2024/02/05 07:11:47;;;;;;;6.63;6.43;;;9.30;29.60;;;;;;6267124;22;20170;-79
2024/02/05 07:14:12;;;;;;;6.80;6.50;;;9.40;29.60;;;;;;6292733;22;20696;-80
2024/02/05 07:16:38;;;;;;;5.97;5.67;;;9.40;29.20;;;;;;6284008;22;20608;-79
2024/02/05 07:19:03;;;;;;;6.57;6.27;;;9.30;29.10;;;;;;6279165;22;20246;-80
2024/02/05 07:21:30;;;;;;;6.43;6.23;;;9.30;29.50;;;;;;6252337;22;20230;-81
2024/02/05 07:23:55;;;;;;;6.53;6.33;;;9.30;29.00;;;;;;6279233;22;20201;-80
2024/02/05 07:26:21;;;;;;;6.83;6.53;;;9.40;29.30;;;;;;6251489;22;20389;-79
2024/02/05 07:28:46;;;;;;;6.73;6.53;;;9.40;29.10;;;;;;6278769;22;20585;-80
2024/02/05 07:31:12;;;;;;;7.50;7.20;;;9.50;29.00;;;;;;6279590;22;20499;-79
2024/02/05 07:33:37;;;;;;;7.43;7.03;;;9.60;28.90;;;;;;6252655;22;20178;-78
2024/02/05 07:36:03;;;;;;;6.40;6.20;;;9.50;28.60;;;;;;6251828;22;20155;-78
2024/02/05 07:38:29;;;;;;;6.10;5.90;;;9.50;28.70;;;;;;6277982;22;20612;-78
2024/02/05 07:40:54;;;;;;;7.27;6.97;;;9.50;28.90;;;;;;6251539;22;20385;-78
2024/02/05 07:43:20;;;;;;;6.73;6.33;;;9.50;28.80;;;;;;6284381;22;20181;-80
2024/02/05 07:45:45;;;;;;;6.63;6.43;;;9.60;28.50;;;;;;6289804;22;20154;-79
2024/02/05 07:48:11;;;;;;;6.30;6.10;;;9.60;28.50;;;;;;6295600;22;20162;-79
2024/02/05 07:50:36;;;;;;;6.30;6.00;;;9.60;28.50;;;;;;6297544;22;20155;-81
2024/02/05 07:53:02;;;;;;;6.50;6.30;;;9.50;28.50;;;;;;6297432;22;20214;-80
2024/02/05 07:55:28;;;;;;;8.17;7.77;;;9.40;29.00;;;;;;6261251;22;20631;-79
2024/02/05 07:57:53;;;;;;;7.20;6.90;;;9.30;29.10;;;;;;6289492;22;20377;-78
2024/02/05 08:00:19;;;;;;;7.43;7.23;;;9.20;29.60;;;;;;6256238;22;20151;-80
2024/02/05 08:02:44;;;;;;;7.00;6.80;;;9.10;29.80;;;;;;6282963;22;20217;-80
2024/02/05 08:05:10;;;;;;;7.10;6.90;;;9.10;29.80;;;;;;6283491;22;20155;-79
2024/02/05 08:07:36;;;;;;;6.93;6.53;;;9.10;30.00;;;;;;6281598;22;20147;-79
2024/02/05 08:10:02;;;;;;;7.20;7.00;;;9.10;29.90;;;;;;6254130;22;20183;-79
2024/02/05 08:12:27;;;;;;;7.57;7.17;;;9.20;29.90;;;;;;6279011;22;20922;-79
2024/02/05 08:14:53;;;;;;;7.00;6.70;;;9.30;29.40;;;;;;6280048;22;20196;-80
2024/02/05 08:17:18;;;;;;;7.17;6.87;;;9.30;29.50;;;;;;6251250;22;20153;-80
2024/02/05 08:19:43;;;;;;;7.00;6.80;;;9.30;29.40;;;;;;6279004;22;20192;-80
2024/02/05 08:22:10;;;;;;;6.80;6.47;;;9.30;29.40;;;;;;6279366;22;20166;-80
2024/02/05 08:24:36;;;;;;;7.20;6.80;;;9.30;29.40;;;;;;6251965;22;20163;-79
2024/02/05 08:27:03;;;;;;;7.53;7.17;;;9.20;29.60;;;;;;6279593;22;20453;-79
2024/02/05 08:29:28;;;;;;;6.90;6.60;;;9.20;29.80;;;;;;6253053;22;20470;-77
2024/02/05 08:40:23;;;;;;;6.27;6.07;;;9.50;29.10;;;;;;6315472;22;20749;-82
2024/02/05 08:43:46;;;;;;;11.10;10.40;;;9.60;29.10;;;;;;6287654;22;20448;-82
2024/02/05 08:50:33;;;;;;;6.10;5.90;;;9.60;28.50;;;;;;6194246;23;20419;-83
2024/02/05 08:53:06;;;;;;;6.93;6.57;;;9.70;28.40;;;;;;6161663;23;20460;-82
2024/02/05 08:55:40;;;;;;;7.37;6.97;;;9.60;28.10;;;;;;6196860;23;20378;-82
2024/02/05 08:58:15;;;;;;;8.30;7.90;;;9.70;28.00;;;;;;6251976;22;20456;-82
2024/02/05 09:00:42;;;;;;;7.00;6.70;;;9.60;27.90;;;;;;6287140;22;20398;-83
2024/02/05 09:06:31;;;;;;;6.23;6.03;;;9.80;27.70;;;;;;6187250;23;20759;-81
2024/02/05 09:09:09;;;;;;;6.53;6.03;;;9.90;27.40;;;;;;6276918;22;20460;-81
2024/02/05 09:11:46;;;;;;;6.40;6.10;;;9.90;27.10;;;;;;6300049;22;20300;-82
2024/02/05 09:14:12;;;;;;;6.60;6.40;;;9.80;27.20;;;;;;6330667;22;20715;-80
2024/02/05 09:16:39;;;;;;;6.50;6.30;;;9.90;27.20;;;;;;6303674;22;20387;-80
2024/02/05 09:19:05;;;;;;;6.80;6.60;;;9.90;27.00;;;;;;6303691;22;20379;-80
2024/02/05 09:21:31;;;;;;;7.30;6.90;;;10.00;26.40;;;;;;6303978;22;20423;-80
2024/02/05 09:23:56;;;;;;;6.73;6.30;;;10.10;26.20;;;;;;6335357;22;20437;-81
2024/02/05 09:26:22;;;;;;;6.60;6.40;;;10.40;25.80;;;;;;6327057;22;20138;-81
2024/02/05 09:28:49;;;;;;;7.37;7.07;;;10.50;24.80;;;;;;6296385;22;20503;-80
2024/02/05 09:31:18;;;;;;;8.03;7.40;;;10.60;24.60;;;;;;6293758;22;20160;-80
2024/02/05 09:34:25;;;;;;;;;;;;;;;;;;;;;
2024/02/05 09:36:57;;;;;;;6.73;6.47;;;10.70;24.80;;;;;;6302563;22;20411;-81
2024/02/05 09:39:43;;;;;;;7.50;7.20;;;10.80;23.90;;;;;;6289645;22;20376;-82
2024/02/05 09:42:17;;;;;;;7.03;6.73;;;10.70;23.90;;;;;;6282295;22;20408;-82
2024/02/05 09:48:34;;;;;;;7.60;7.10;;;10.60;24.50;;;;;;6190951;23;20412;-83
2024/02/05 09:54:43;;;;;;;7.47;7.07;;;10.70;24.10;;;;;;6259002;22;20386;-84
2024/02/05 10:00:21;;;;;;;6.87;6.57;;;10.70;24.00;;;;;;6177801;23;20474;-81
2024/02/05 10:03:10;;;;;;;6.83;6.43;;;10.70;23.80;;;;;;6168576;23;20490;-84
2024/02/05 10:16:25;;;;;;;6.43;6.13;;;10.90;23.80;;;;;;6132870;23;20377;-81
2024/02/05 10:18:56;;;;;;;6.37;5.97;;;10.90;23.80;;;;;;6152359;23;20385;-82
2024/02/05 10:28:06;;;;;;;6.60;6.30;;;11.10;23.30;;;;;;6280922;22;20368;-79
2024/02/05 10:30:54;;;;;;;6.67;6.07;;;11.10;23.10;;;;;;6269185;22;20492;-83
2024/02/05 10:36:37;;;;;;;7.03;6.53;;;11.10;23.30;;;;;;6293186;22;20775;-81
2024/02/05 10:39:25;;;;;;;6.47;6.17;;;11.20;23.10;;;;;;6288428;22;20392;-81
2024/02/05 10:41:54;;;;;;;6.60;6.20;;;11.30;22.90;;;;;;6287404;22;20432;-82
2024/02/05 10:44:26;;;;;;;7.57;6.97;;;11.30;22.50;;;;;;6288051;22;20381;-82
2024/02/05 10:46:53;;;;;;;6.77;6.13;;;11.40;22.70;;;;;;6287745;22;20371;-81
2024/02/05 10:49:19;;;;;;;6.77;6.33;;;11.40;22.60;;;;;;6288860;22;20392;-81
2024/02/05 10:51:48;;;;;;;7.27;6.67;;;11.40;22.30;;;;;;6287989;22;20494;-81
2024/02/05 10:54:13;;;;;;;7.23;6.67;;;11.50;22.20;;;;;;6287483;22;20158;-81
2024/02/05 10:56:42;;;;;;;6.30;6.00;;;11.60;22.10;;;;;;6288096;22;20416;-81
2024/02/05 10:59:09;;;;;;;6.33;6.03;;;11.60;21.80;;;;;;6287683;22;20146;-81
2024/02/05 11:02:30;;;;;;;7.53;6.90;;;11.60;21.70;;;;;;6287715;22;20450;-81
2024/02/05 11:04:57;;;;;;;6.70;6.30;;;11.60;21.70;;;;;;6251393;22;20850;-81
2024/02/05 11:07:30;;;;;;;7.67;7.17;;;11.60;21.80;;;;;;6315197;22;20764;-83
2024/02/05 11:09:57;;;;;;;6.70;6.30;;;11.60;21.70;;;;;;6315367;22;20361;-82
2024/02/05 11:12:27;;;;;;;6.70;6.40;;;11.60;21.50;;;;;;6287032;22;20420;-82
2024/02/05 11:14:56;;;;;;;7.10;6.60;;;11.60;21.60;;;;;;6313561;22;20392;-81
2024/02/05 11:17:23;;;;;;;7.53;7.00;;;11.60;21.60;;;;;;6284922;22;20471;-81
2024/02/05 11:19:50;;;;;;;6.87;6.47;;;11.60;21.90;;;;;;6284465;22;20376;-80
2024/02/05 11:22:20;;;;;;;6.40;6.10;;;11.70;21.30;;;;;;6285086;22;20412;-79
2024/02/05 11:24:48;;;;;;;6.70;6.40;;;11.70;21.40;;;;;;6285586;22;20380;-81
2024/02/05 11:27:14;;;;;;;7.60;7.00;;;11.80;21.50;;;;;;6285483;22;20772;-81
2024/02/05 11:29:42;;;;;;;6.93;6.53;;;11.80;21.00;;;;;;6286418;22;20408;-81
2024/02/05 11:32:08;;;;;;;7.17;6.63;;;11.90;21.00;;;;;;6286762;22;20424;-82
2024/02/05 11:34:35;;;;;;;6.20;6.00;;;12.00;20.90;;;;;;6314396;22;20369;-83
2024/02/05 11:37:13;;;;;;;8.07;7.47;;;11.90;20.80;;;;;;6285767;22;20377;-80
2024/02/05 11:39:46;;;;;;;7.27;6.67;;;12.00;20.60;;;;;;6287387;22;20379;-79
2024/02/05 11:42:14;;;;;;;7.50;6.87;;;12.00;20.70;;;;;;6285359;22;20396;-82
2024/02/05 11:44:40;;;;;;;7.90;7.27;;;12.10;20.30;;;;;;6286104;22;20443;-82
2024/02/05 11:47:06;;;;;;;7.60;7.00;;;12.20;20.00;;;;;;6314233;22;20387;-78
2024/02/05 11:49:36;;;;;;;7.40;7.00;;;12.30;20.20;;;;;;6289578;22;20194;-81
2024/02/05 11:52:03;;;;;;;6.90;6.50;;;12.30;19.70;;;;;;6284105;22;20416;-78
2024/02/05 11:54:32;;;;;;;7.30;6.90;;;12.40;19.70;;;;;;6312695;22;20368;-79
2024/02/05 11:56:58;;;;;;;7.13;6.80;;;12.30;19.50;;;;;;6287271;22;20816;-77
2024/02/05 11:59:24;;;;;;;7.00;6.50;;;12.40;19.60;;;;;;6289396;22;20376;-76
2024/02/05 12:01:50;;;;;;;7.73;7.17;;;12.30;19.50;;;;;;6288433;22;20170;-79
2024/02/05 12:04:16;;;;;;;7.20;6.80;;;12.40;19.70;;;;;;6318598;22;20500;-76
2024/02/05 12:06:43;;;;;;;7.60;7.03;;;12.40;19.50;;;;;;6291986;22;20475;-78
2024/02/05 12:09:12;;;;;;;7.73;7.33;;;12.40;19.60;;;;;;6289751;22;20381;-79
2024/02/05 12:11:38;;;;;;;8.43;7.63;;;12.40;19.40;;;;;;6293186;22;20400;-78
2024/02/05 12:14:08;;;;;;;6.87;6.50;;;12.40;19.50;;;;;;6293456;22;20473;-81
2024/02/05 12:16:33;;;;;;;9.43;7.00;;;12.50;19.50;;;;;;6287493;22;20726;-81
2024/02/05 12:18:59;;;;;;;6.57;6.10;;;12.50;19.20;;;;;;6285849;22;20380;-79
2024/02/05 12:21:26;;;;;;;6.90;6.30;;;12.50;19.00;;;;;;6286251;22;20192;-81
2024/02/05 12:24:06;;;;;;;7.40;6.80;;;12.50;19.10;;;;;;6286465;22;20142;-82
2024/02/05 12:26:31;;;;;;;7.30;6.90;;;12.50;18.90;;;;;;6285724;22;20444;-82
2024/02/05 12:28:57;;;;;;;10.07;7.00;;;12.60;19.10;;;;;;6286273;22;20392;-81
2024/02/05 12:31:23;;;;;;;9.30;8.57;;;12.60;18.90;;;;;;6314462;22;20174;-81
2024/02/05 12:33:59;;;;;;;7.80;7.40;;;12.70;18.70;;;;;;6284275;22;20173;-80
2024/02/05 12:36:26;;;;;;;8.03;7.33;;;12.70;18.60;;;;;;6285437;22;20599;-80
2024/02/05 12:38:52;;;;;;;8.27;7.60;;;12.60;18.70;;;;;;6285212;22;20476;-78
2024/02/05 12:41:18;;;;;;;7.20;6.80;;;12.70;18.50;;;;;;6286862;22;20396;-80
2024/02/05 12:43:44;;;;;;;6.80;6.30;;;12.70;18.50;;;;;;6285965;22;20477;-80
2024/02/05 12:46:10;;;;;;;7.13;6.53;;;12.80;18.50;;;;;;6286173;22;20388;-79
2024/02/05 12:48:35;;;;;;;7.57;7.07;;;12.80;18.00;;;;;;6284666;22;20386;-80
2024/02/05 12:51:07;;;;;;;7.77;7.10;;;12.80;18.00;;;;;;6284445;22;20170;-82
2024/02/05 12:53:34;;;;;;;6.50;6.10;;;12.90;18.00;;;;;;6285857;22;20416;-81
2024/02/05 12:56:16;;;;;;;7.03;6.33;;;12.90;17.80;;;;;;6312425;22;20369;-80
2024/02/05 12:58:42;;;;;;;7.23;6.57;;;13.00;18.00;;;;;;6259641;22;20373;-79
2024/02/05 13:01:11;;;;;;;7.97;6.87;;;13.00;18.00;;;;;;6311143;22;20399;-80
2024/02/05 13:03:45;;;;;;;6.33;6.03;;;13.00;17.80;;;;;;6283880;22;20214;-81
2024/02/05 13:06:24;;;;;;;7.70;7.10;;;13.00;17.80;;;;;;6250810;22;20391;-79
2024/02/05 13:08:59;;;;;;;9.03;7.50;;;13.00;17.70;;;;;;6312324;22;20430;-81
2024/02/05 13:11:31;;;;;;;7.57;7.07;;;13.10;17.50;;;;;;6304274;22;20404;-80
2024/02/05 13:13:57;;;;;;;6.93;6.63;;;13.00;17.70;;;;;;6311192;22;20416;-79
2024/02/05 13:16:24;;;;;;;6.97;6.57;;;13.00;17.70;;;;;;6284632;22;20903;-81
2024/02/05 13:18:50;;;;;;;7.30;6.83;;;13.00;17.60;;;;;;6284170;22;20154;-80
2024/02/05 13:21:15;;;;;;;7.00;6.30;;;13.10;17.40;;;;;;6312198;22;20375;-82
2024/02/05 13:23:41;;;;;;;6.80;6.13;;;13.10;17.20;;;;;;6285331;22;20160;-79
2024/02/05 13:26:09;;;;;;;7.93;6.83;;;13.10;17.30;;;;;;6286045;22;20599;-80
2024/02/05 13:28:39;;;;;;;6.63;6.23;;;13.10;17.00;;;;;;6286958;22;20196;-79
2024/02/05 13:31:05;;;;;;;6.77;6.23;;;13.10;17.00;;;;;;6285758;22;20455;-80
2024/02/05 13:33:30;;;;;;;5.93;5.60;;;13.10;17.00;;;;;;6284923;22;20424;-82
2024/02/05 13:35:56;;;;;;;6.87;6.47;;;13.10;17.00;;;;;;6285613;22;20403;-83
2024/02/05 13:38:21;;;;;;;6.43;5.93;;;13.20;17.10;;;;;;6287283;22;20154;-81
2024/02/05 13:40:47;;;;;;;7.50;7.00;;;13.30;17.20;;;;;;6287100;22;20158;-82
2024/02/05 13:43:12;;;;;;;6.83;6.23;;;13.40;17.20;;;;;;6285427;22;20631;-81
2024/02/05 13:45:38;;;;;;;6.70;6.40;;;13.50;16.70;;;;;;6283115;22;20554;-80
2024/02/05 13:48:04;;;;;;;6.63;6.20;;;13.60;16.20;;;;;;6283721;22;20192;-81
2024/02/05 13:50:29;;;;;;;6.90;6.40;;;13.60;16.40;;;;;;6313480;22;20557;-80
2024/02/05 13:52:55;;;;;;;6.03;5.40;;;13.50;16.10;;;;;;6312613;22;20174;-82
2024/02/05 13:55:20;;;;;;;7.00;6.50;;;13.50;16.20;;;;;;6284244;22;20161;-82
2024/02/05 13:57:46;;;;;;;6.90;6.37;;;13.60;16.10;;;;;;6282172;22;20574;-82
2024/02/05 14:00:13;;;;;;;10.20;7.10;;;13.60;15.90;;;;;;6283685;22;20150;-83
2024/02/05 14:02:39;;;;;;;8.17;7.40;;;13.60;16.20;;;;;;6313000;22;20166;-80
2024/02/05 14:05:12;;;;;;;8.13;5.50;;;13.60;16.20;;;;;;6285010;22;20412;-82
2024/02/05 14:07:38;;;;;;;6.80;6.40;;;13.70;16.20;;;;;;6284178;22;20372;-81
2024/02/05 14:10:04;;;;;;;6.80;6.30;;;13.70;16.30;;;;;;6315050;22;20429;-81
2024/02/05 14:12:31;;;;;;;7.50;6.90;;;13.80;15.50;;;;;;6314445;22;20170;-82
2024/02/05 14:14:57;;;;;;;6.40;6.10;;;13.80;15.70;;;;;;6313489;22;20411;-81
2024/02/05 14:17:23;;;;;;;6.70;6.40;;;13.80;15.50;;;;;;6285062;22;20384;-82
2024/02/05 14:19:52;;;;;;;6.80;6.50;;;13.80;15.50;;;;;;6286102;22;20154;-83
2024/02/05 14:22:25;;;;;;;7.57;6.97;;;13.90;15.80;;;;;;6287252;22;20453;-82
2024/02/05 14:24:51;;;;;;;6.83;6.50;;;13.90;15.80;;;;;;6286042;22;20415;-81
2024/02/05 14:27:17;;;;;;;7.20;6.80;;;14.00;15.80;;;;;;6284337;22;20153;-82